createdAt,value
2019-06-20T02:20:57.036Z,93.26
2019-06-20T02:21:57.507Z,93.31
2019-06-20T02:22:57.964Z,92.75
2019-06-20T02:25:35.608Z,93.01
2019-06-20T02:27:02.193Z,93.05
2019-06-20T02:28:02.640Z,92.85
2019-06-20T02:30:47.227Z,92.45
2019-06-20T02:31:53.230Z,92.45
2019-06-20T02:32:53.668Z,92.35
2019-06-20T02:34:08.760Z,92.65
2019-06-20T02:35:09.206Z,92.45
2019-06-20T02:36:31.256Z,92.35
2019-06-20T02:37:31.764Z,92.55
2019-06-20T04:41:53.358Z,90.30
2019-06-20T04:42:53.805Z,90.26
2019-06-20T04:44:11.231Z,89.76
2019-06-20T04:45:11.666Z,89.86
2019-06-20T04:57:44.145Z,90.06
2019-06-20T04:58:44.571Z,89.56
2019-06-20T04:59:45.020Z,89.86
2019-06-20T05:00:45.446Z,89.90
2019-06-20T05:01:45.890Z,89.60
2019-06-20T05:02:46.408Z,89.80
2019-06-20T05:03:46.853Z,89.80
2019-06-20T05:04:47.312Z,89.56
2019-06-20T05:05:47.753Z,89.66
2019-06-20T05:06:48.241Z,89.66
2019-06-20T05:07:48.692Z,89.36
2019-06-20T05:08:49.176Z,88.95
2019-06-20T05:09:49.616Z,89.15
2019-06-20T05:10:50.115Z,89.06
2019-06-20T05:11:50.553Z,88.85
2019-06-20T05:12:51.080Z,89.06
2019-06-20T05:13:51.507Z,89.06
2019-06-20T05:14:51.979Z,88.85
2019-06-20T05:15:53.484Z,88.91
2019-06-20T05:16:54.041Z,89.06
2019-06-20T05:17:54.804Z,88.91
2019-06-20T05:18:55.280Z,88.91
2019-06-20T05:19:55.725Z,88.95
2019-06-20T05:20:56.241Z,89.06
2019-06-20T05:21:56.670Z,88.91
2019-06-20T05:43:35.946Z,86.32
2019-06-20T05:44:36.410Z,86.28
2019-06-20T05:45:36.856Z,86.08
2019-06-20T05:46:37.346Z,85.82
2019-06-20T05:47:37.776Z,86.12
2019-06-20T05:48:38.348Z,86.38
2019-06-20T05:49:38.803Z,86.32
2019-06-20T05:50:39.307Z,86.18
2019-06-20T05:51:39.959Z,85.82
2019-06-20T05:52:40.449Z,85.78
2019-06-20T05:53:40.895Z,86.22
2019-06-20T05:54:41.381Z,86.22
2019-06-20T05:55:41.819Z,85.86
2019-06-20T05:56:42.351Z,86.22
2019-06-20T05:57:42.801Z,86.12
2019-06-20T05:58:43.296Z,86.22
2019-06-20T05:59:43.786Z,86.22
2019-06-20T06:00:44.303Z,86.12
2019-06-20T06:01:44.773Z,85.61
2019-06-20T06:02:45.332Z,85.52
2019-06-20T06:03:45.787Z,84.21
2019-06-20T06:05:13.931Z,84.41
2019-06-20T06:06:14.419Z,85.31
2019-06-20T06:10:11.053Z,84.37
2019-06-20T06:11:11.510Z,85.08
2019-06-20T06:12:11.952Z,84.88
2019-06-20T06:13:12.483Z,85.02
2019-06-20T06:14:13.886Z,85.08
2019-06-20T06:15:15.445Z,85.17
2019-06-20T06:16:25.768Z,84.88
2019-06-20T06:17:22.289Z,84.88
2019-06-20T06:18:22.802Z,85.08
2019-06-20T06:19:23.284Z,84.88
2019-06-20T06:20:23.732Z,84.57
2019-06-20T06:21:24.171Z,84.27
2019-06-20T06:22:24.671Z,84.27
2019-06-20T06:23:25.113Z,83.77
2019-06-20T06:24:25.644Z,84.37
2019-06-20T06:25:26.093Z,84.57
2019-06-20T06:26:26.533Z,84.37
2019-06-20T06:27:27.070Z,84.47
2019-06-20T06:28:27.511Z,83.87
2019-06-20T06:29:28.034Z,83.77
2019-06-20T06:30:28.474Z,84.23
2019-06-20T06:31:28.963Z,84.27
2019-06-20T06:32:39.466Z,83.77
2019-06-20T06:33:35.845Z,84.17
2019-06-20T06:34:36.356Z,83.73
2019-06-20T06:35:36.783Z,83.67
2019-06-20T06:36:37.253Z,84.17
2019-06-20T06:37:37.696Z,83.87
2019-06-20T06:38:39.213Z,84.27
2019-06-20T06:39:43.288Z,83.17
2019-06-20T06:40:44.035Z,83.27
2019-06-20T06:41:44.476Z,82.87
2019-06-20T06:42:46.097Z,82.97
2019-06-20T06:43:46.532Z,83.27
2019-06-20T06:46:06.666Z,82.97
2019-06-20T06:47:07.188Z,83.07
2019-06-20T06:48:07.662Z,83.33
2019-06-20T06:49:08.098Z,83.47
2019-06-20T06:50:08.561Z,83.43
2019-06-20T06:51:08.989Z,83.43
2019-06-20T06:52:09.438Z,83.23
2019-06-20T06:53:09.966Z,83.43
2019-06-20T06:54:10.399Z,82.53
2019-06-20T06:55:10.934Z,82.53
2019-06-20T06:56:11.367Z,82.63
2019-06-20T06:57:11.834Z,82.29
2019-06-20T06:58:12.278Z,82.09
2019-06-20T06:59:12.713Z,81.74
2019-06-20T07:00:13.185Z,81.65
2019-06-20T07:01:13.606Z,81.55
2019-06-20T07:02:14.025Z,80.91
2019-06-20T07:03:14.467Z,81.11
2019-06-20T07:04:14.912Z,80.71
2019-06-20T07:05:15.394Z,80.87
2019-06-20T07:06:15.825Z,80.77
2019-06-20T07:07:16.291Z,80.47
2019-06-20T07:08:16.777Z,80.17
2019-06-20T07:09:17.227Z,79.67
2019-06-20T07:10:17.981Z,79.86
2019-06-20T07:11:18.479Z,79.67
2019-06-20T07:12:18.974Z,79.27
2019-06-20T07:13:19.515Z,79.27
2019-06-20T07:14:19.947Z,79.86
2019-06-20T07:15:20.485Z,79.67
2019-06-20T07:16:20.925Z,79.80
2019-06-20T07:17:21.378Z,79.27
2019-06-20T07:18:21.821Z,79.67
2019-06-20T07:19:22.324Z,79.71
2019-06-20T07:20:22.914Z,79.71
2019-06-20T07:21:23.463Z,80.07
2019-06-20T07:22:23.914Z,79.86
2019-06-20T07:23:24.396Z,80.27
2019-06-20T07:24:24.835Z,80.36
2019-06-20T07:25:25.368Z,80.36
2019-06-20T07:26:25.820Z,80.30
2019-06-20T07:27:26.372Z,80.07
2019-06-20T07:28:26.841Z,80.30
2019-06-20T07:29:27.499Z,80.11
2019-06-20T07:30:27.967Z,80.30
2019-06-20T07:31:29.758Z,79.77
2019-06-20T07:32:30.214Z,79.86
2019-06-20T07:33:31.733Z,79.86
2019-06-20T07:34:32.230Z,79.43
2019-06-20T07:35:32.812Z,79.23
2019-06-20T07:36:33.264Z,78.89
2019-06-20T07:37:33.757Z,78.49
2019-06-20T07:38:34.212Z,78.39
2019-06-20T07:39:34.661Z,78.09
2019-06-20T07:40:35.429Z,78.25
2019-06-20T07:41:35.856Z,77.99
2019-06-20T07:42:36.295Z,75.96
2019-06-20T07:43:36.872Z,75.99
2019-06-20T07:44:37.313Z,76.39
2019-06-20T07:45:38.551Z,76.49
2019-06-20T07:46:38.998Z,76.83
2019-06-20T07:47:39.432Z,77.53
2019-06-20T07:48:39.928Z,77.93
2019-06-20T07:49:40.365Z,78.06
2019-06-20T07:50:40.818Z,77.86
2019-06-20T07:51:41.245Z,77.36
2019-06-20T07:52:41.668Z,77.76
2019-06-20T07:53:42.142Z,77.86
2019-06-20T07:54:42.621Z,77.80
2019-06-20T07:55:43.168Z,77.86
2019-06-20T07:56:43.601Z,78.30
2019-06-20T07:57:44.026Z,77.97
2019-06-20T07:58:44.451Z,78.30
2019-06-20T07:59:44.890Z,78.41
2019-06-20T08:00:45.333Z,78.20
2019-06-20T08:01:45.779Z,78.84
2019-06-20T08:02:46.311Z,78.64
2019-06-20T08:03:46.757Z,78.74
2019-06-20T08:04:47.509Z,79.18
2019-06-20T08:05:48.292Z,79.48
2019-06-20T08:06:48.773Z,79.64
2019-06-20T08:07:49.226Z,79.34
2019-06-20T08:08:49.695Z,79.24
2019-06-20T08:09:55.125Z,79.34
2019-06-20T08:10:55.576Z,79.14
2019-06-20T08:11:56.020Z,79.34
2019-06-20T08:12:56.480Z,78.64
2019-06-20T08:13:56.937Z,78.91
2019-06-20T08:14:58.314Z,78.91
2019-06-20T08:16:04.191Z,78.50
2019-06-20T08:17:04.680Z,78.27
2019-06-20T08:18:05.110Z,78.27
2019-06-20T08:19:05.666Z,78.27
2019-06-20T08:20:06.146Z,77.50
2019-06-20T08:21:06.606Z,77.56
2019-06-20T08:22:07.116Z,77.97
2019-06-20T08:23:07.560Z,76.56
2019-06-20T08:24:08.007Z,77.33
2019-06-20T08:25:08.454Z,77.13
2019-06-20T08:26:08.919Z,76.93
2019-06-20T08:27:09.346Z,76.63
2019-06-20T08:28:09.799Z,76.63
2019-06-20T08:29:20.871Z,76.83
2019-06-20T08:30:16.743Z,76.59
2019-06-20T08:31:17.216Z,76.59
2019-06-20T08:32:17.718Z,76.69
2019-06-20T08:33:18.160Z,75.89
2019-06-20T08:34:18.602Z,76.09
2019-06-20T08:35:19.037Z,76.29
2019-06-20T08:36:19.512Z,76.09
2019-06-20T08:37:19.940Z,75.99
2019-06-20T08:38:20.420Z,76.45
2019-06-20T08:39:20.862Z,76.45
2019-06-20T08:40:21.736Z,76.56
2019-06-20T08:41:22.196Z,76.56
2019-06-20T08:42:22.653Z,76.56
2019-06-20T08:43:23.082Z,76.26
2019-06-20T08:44:23.672Z,76.45
2019-06-20T08:45:24.216Z,76.39
2019-06-20T08:46:24.677Z,76.15
2019-06-20T08:47:25.107Z,75.96
2019-06-20T08:48:25.632Z,75.85
2019-06-20T08:49:26.195Z,75.56
2019-06-20T08:50:26.639Z,75.79
2019-06-20T08:51:27.100Z,76.09
2019-06-20T08:52:27.675Z,76.19
2019-06-20T08:53:28.168Z,76.13
2019-06-20T08:54:28.616Z,76.53
2019-06-20T08:55:29.145Z,76.83
2019-06-20T08:56:29.669Z,77.33
2019-06-20T08:57:31.148Z,77.23
2019-06-20T08:58:31.571Z,77.23
2019-06-20T08:59:32.000Z,77.09
2019-06-20T09:00:32.442Z,76.79
2019-06-20T09:01:32.945Z,75.89
2019-06-20T09:02:33.398Z,75.85
2019-06-20T09:03:33.939Z,76.35
2019-06-20T09:04:34.411Z,75.96
2019-06-20T09:05:34.880Z,75.82
2019-06-20T09:06:35.419Z,75.72
2019-06-20T09:07:35.906Z,75.42
2019-06-20T09:08:36.341Z,75.52
2019-06-20T09:09:36.845Z,75.12
2019-06-20T09:10:37.300Z,74.85
2019-06-20T09:11:37.824Z,75.16
2019-06-20T09:12:38.250Z,74.85
2019-06-20T09:13:40.570Z,74.76
2019-06-20T09:14:41.176Z,74.99
2019-06-20T09:15:41.694Z,75.35
2019-06-20T09:16:42.163Z,74.66
2019-06-20T09:17:42.684Z,74.76
2019-06-20T09:18:43.157Z,75.19
2019-06-20T09:19:43.668Z,74.76
2019-06-20T09:20:44.092Z,75.19
2019-06-20T09:21:44.650Z,75.39
2019-06-20T09:22:45.109Z,75.13
2019-06-20T09:23:45.547Z,74.49
2019-06-20T09:24:46.010Z,74.93
2019-06-20T09:25:46.468Z,73.79
2019-06-20T09:26:48.975Z,74.89
2019-06-20T09:27:49.428Z,75.09
2019-06-20T09:29:12.913Z,75.39
2019-06-20T09:30:13.342Z,74.79
2019-06-20T09:31:40.213Z,74.29
2019-06-20T09:32:40.644Z,74.59
2019-06-20T09:33:47.659Z,74.89
2019-06-20T09:34:48.116Z,75.09
2019-06-20T09:35:52.152Z,74.99
2019-06-20T09:36:53.656Z,75.19
2019-06-20T09:38:01.199Z,74.19
2019-06-20T09:39:01.652Z,74.85
2019-06-20T09:40:18.724Z,74.79
2019-06-20T09:41:19.171Z,74.59
2019-06-20T09:42:27.230Z,74.69
2019-06-20T09:43:28.118Z,74.49
2019-06-20T09:45:05.248Z,74.05
2019-06-20T09:46:05.692Z,74.16
2019-06-20T09:47:11.212Z,74.05
2019-06-20T09:48:11.660Z,74.36
2019-06-20T09:49:12.097Z,74.16
2019-06-20T09:50:14.036Z,72.59
2019-06-20T09:51:14.476Z,73.06
2019-06-20T09:52:14.921Z,72.86
2019-06-20T09:53:15.347Z,72.86
2019-06-20T09:54:15.785Z,73.36
2019-06-20T09:55:16.217Z,73.56
2019-06-20T09:56:16.649Z,73.32
2019-06-20T09:57:17.219Z,73.02
2019-06-20T09:58:18.202Z,73.32
2019-06-20T09:59:27.494Z,73.12
2019-06-20T10:00:25.095Z,73.02
2019-06-20T10:01:25.586Z,72.69
2019-06-20T10:02:26.047Z,72.62
2019-06-20T10:03:26.481Z,73.02
2019-06-20T10:04:26.929Z,72.89
2019-06-20T10:05:27.359Z,71.92
2019-06-20T10:06:27.779Z,71.19
2019-06-20T10:07:28.224Z,71.83
2019-06-20T10:08:28.654Z,71.09
2019-06-20T10:09:29.122Z,71.06
2019-06-20T10:10:29.577Z,70.32
2019-06-20T10:11:30.023Z,70.09
2019-06-20T10:12:30.527Z,69.96
2019-06-20T10:13:32.764Z,69.76
2019-06-20T10:14:33.408Z,70.26
2019-06-20T10:15:33.856Z,70.16
2019-06-20T10:16:45.267Z,70.26
2019-06-20T10:17:40.845Z,68.83
2019-06-20T10:18:41.377Z,69.23
2019-06-20T10:19:41.801Z,68.70
2019-06-20T10:20:42.320Z,68.70
2019-06-20T10:21:42.793Z,67.80
2019-06-20T10:22:44.067Z,68.56
2019-06-20T10:23:46.181Z,68.20
2019-06-20T10:24:49.102Z,68.90
2019-06-20T10:25:49.639Z,69.43
2019-06-20T10:26:51.393Z,69.62
2019-06-20T10:27:53.357Z,69.53
2019-06-20T10:28:54.161Z,69.53
2019-06-20T10:29:54.595Z,68.63
2019-06-20T10:30:55.069Z,67.66
2019-06-20T10:31:55.526Z,68.96
2019-06-20T10:32:57.563Z,68.66
2019-06-20T10:33:58.268Z,69.56
2019-06-20T10:34:58.716Z,68.66
2019-06-20T10:35:59.174Z,67.73
2019-06-20T10:36:59.640Z,68.33
2019-06-20T10:38:00.076Z,68.83
2019-06-20T10:39:00.675Z,69.02
2019-06-20T10:40:01.116Z,69.43
2019-06-20T10:41:01.700Z,68.96
2019-06-20T10:42:02.145Z,68.96
2019-06-20T10:43:02.600Z,69.56
2019-06-20T10:44:03.046Z,69.56
2019-06-20T10:45:03.597Z,69.09
2019-06-20T10:46:04.081Z,68.60
2019-06-20T10:47:04.615Z,68.99
2019-06-20T10:48:05.052Z,69.32
2019-06-20T10:49:06.627Z,69.32
2019-06-20T10:50:07.049Z,68.96
2019-06-20T10:51:07.569Z,68.93
2019-06-20T10:52:08.042Z,68.66
2019-06-20T10:53:08.526Z,68.13
2019-06-20T10:54:09.028Z,67.23
2019-06-20T10:55:09.536Z,67.70
2019-06-20T10:56:09.995Z,67.50
2019-06-20T10:57:10.448Z,66.87
2019-06-20T10:58:10.887Z,66.60
2019-06-20T10:59:11.357Z,65.47
2019-06-20T11:00:11.807Z,65.27
2019-06-20T11:01:12.254Z,65.17
2019-06-20T11:02:12.712Z,65.44
2019-06-20T11:03:13.152Z,65.54
2019-06-20T11:04:13.678Z,65.11
2019-06-20T11:05:14.110Z,65.11
2019-06-20T11:06:14.579Z,64.61
2019-06-20T11:07:15.047Z,63.22
2019-06-20T11:08:15.485Z,62.92
2019-06-20T11:09:15.918Z,63.12
2019-06-20T11:10:16.378Z,63.22
2019-06-20T11:11:16.804Z,63.49
2019-06-20T11:12:17.331Z,63.62
2019-06-20T11:13:17.777Z,63.42
2019-06-20T11:14:18.213Z,63.35
2019-06-20T11:15:18.658Z,63.65
2019-06-20T11:16:19.091Z,64.01
2019-06-20T11:17:19.548Z,64.12
2019-06-20T11:18:19.984Z,63.42
2019-06-20T11:19:20.494Z,62.92
2019-06-20T11:20:20.922Z,62.19
2019-06-20T11:21:21.366Z,63.02
2019-06-20T11:22:21.847Z,63.62
2019-06-20T11:23:22.282Z,62.59
2019-06-20T11:24:22.710Z,61.99
2019-06-20T11:25:23.152Z,60.70
2019-06-20T11:26:23.591Z,61.30
2019-06-20T11:27:24.077Z,60.21
2019-06-20T11:28:24.499Z,60.17
2019-06-20T11:29:24.939Z,60.57
2019-06-20T11:30:25.370Z,60.64
2019-06-20T11:31:25.898Z,60.17
2019-06-20T11:32:26.377Z,60.14
2019-06-20T11:33:26.820Z,59.35
2019-06-20T11:34:27.260Z,60.61
2019-06-20T11:35:27.699Z,59.22
2019-06-20T11:36:28.172Z,59.09
2019-06-20T11:37:30.140Z,59.39
2019-06-20T11:38:30.593Z,59.27
2019-06-20T11:39:31.035Z,59.00
2019-06-20T11:40:31.471Z,59.00
2019-06-20T11:41:31.898Z,59.12
2019-06-20T11:42:32.382Z,59.72
2019-06-20T11:43:34.631Z,60.35
2019-06-20T11:44:36.976Z,60.44
2019-06-20T11:45:38.832Z,60.12
2019-06-20T11:46:40.621Z,60.22
2019-06-20T11:47:42.475Z,59.52
2019-06-20T11:48:43.092Z,59.59
2019-06-20T11:49:43.558Z,59.69
2019-06-20T11:50:43.989Z,59.69
2019-06-20T11:51:44.436Z,59.92
2019-06-20T11:52:45.848Z,59.42
2019-06-20T11:53:46.494Z,60.14
2019-06-20T11:54:46.971Z,60.38
2019-06-20T11:55:47.417Z,61.20
2019-06-20T11:56:47.842Z,62.02
2019-06-20T11:57:48.288Z,61.55
2019-06-20T11:58:48.782Z,61.25
2019-06-20T11:59:50.488Z,61.25
2019-06-20T12:01:03.087Z,62.15
2019-06-20T12:01:57.338Z,62.45
2019-06-20T12:02:57.813Z,62.05
2019-06-20T12:03:58.244Z,61.85
2019-06-20T12:04:58.671Z,62.02
2019-06-20T12:05:59.137Z,62.23
2019-06-20T12:06:59.567Z,62.02
2019-06-20T12:08:00.042Z,61.47
2019-06-20T12:09:00.585Z,61.47
2019-06-20T12:10:01.023Z,61.83
2019-06-20T12:11:03.707Z,61.71
2019-06-20T12:12:04.189Z,60.26
2019-06-20T12:13:04.649Z,60.06
2019-06-20T12:14:05.079Z,58.86
2019-06-20T12:15:12.308Z,58.56
2019-06-20T12:16:12.765Z,58.88
2019-06-20T12:17:13.337Z,59.08
2019-06-20T12:18:13.805Z,58.40
2019-06-20T12:19:14.376Z,58.60
2019-06-20T12:20:14.811Z,58.50
2019-06-20T12:21:15.236Z,58.07
2019-06-20T12:22:17.780Z,56.88
2019-06-20T12:23:18.305Z,56.53
2019-06-20T12:24:18.818Z,55.76
2019-06-20T12:25:19.261Z,55.51
2019-06-20T12:26:19.750Z,53.74
2019-06-20T12:27:20.220Z,52.97
2019-06-20T12:28:20.734Z,51.42
2019-06-20T12:29:21.180Z,51.47
2019-06-20T12:30:21.718Z,51.99
2019-06-20T12:31:22.151Z,53.34
2019-06-20T12:32:22.580Z,53.57
2019-06-20T12:33:23.040Z,54.11
2019-06-20T12:34:23.478Z,53.18
2019-06-20T12:35:23.925Z,54.81
2019-06-20T12:36:24.530Z,55.13
2019-06-20T12:37:24.962Z,56.65
2019-06-20T12:38:27.690Z,57.27
2019-06-20T12:39:28.220Z,56.40
2019-06-20T12:40:30.715Z,56.53
2019-06-20T12:41:31.302Z,57.03
2019-06-20T12:42:31.756Z,57.62
2019-06-20T12:43:32.306Z,57.20
2019-06-20T12:44:32.790Z,57.67
2019-06-20T12:45:33.255Z,57.67
2019-06-20T12:46:33.783Z,56.38
2019-06-20T12:47:34.226Z,56.18
2019-06-20T12:48:34.668Z,56.55
2019-06-20T12:49:35.112Z,56.38
2019-06-20T12:50:35.547Z,57.37
2019-06-20T12:51:37.314Z,57.57
2019-06-20T12:52:41.345Z,56.35
2019-06-20T12:53:44.170Z,56.74
2019-06-20T12:54:44.930Z,57.07
2019-06-20T12:55:45.797Z,57.89
2019-06-20T12:56:46.365Z,58.59
2019-06-20T12:57:48.388Z,58.72
2019-06-20T12:58:49.059Z,57.55
2019-06-20T12:59:49.495Z,57.45
2019-06-20T13:00:50.400Z,56.19
2019-06-20T13:01:51.216Z,56.88
2019-06-20T13:02:51.681Z,56.71
2019-06-20T13:03:52.142Z,56.91
2019-06-20T13:04:52.645Z,57.43
2019-06-20T13:05:53.073Z,57.04
2019-06-20T13:06:55.640Z,57.76
2019-06-20T13:07:56.138Z,58.69
2019-06-20T13:08:56.774Z,59.78
2019-06-20T13:09:57.212Z,59.58
2019-06-20T13:10:57.669Z,59.48
2019-06-20T13:11:58.116Z,59.88
2019-06-20T13:12:58.572Z,59.38
2019-06-20T13:13:59.026Z,59.38
2019-06-20T13:14:59.472Z,60.11
2019-06-20T13:15:59.904Z,61.00
2019-06-20T13:17:00.461Z,61.50
2019-06-20T13:18:00.962Z,61.83
2019-06-20T13:19:01.404Z,62.52
2019-06-20T13:20:01.855Z,62.32
2019-06-20T13:21:02.317Z,63.02
2019-06-20T13:22:02.745Z,62.42
2019-06-20T13:23:03.223Z,63.22
2019-06-20T13:24:03.656Z,62.85
2019-06-20T13:25:04.118Z,63.12
2019-06-20T13:26:04.582Z,63.02
2019-06-20T13:27:05.037Z,62.52
2019-06-20T13:28:05.577Z,63.65
2019-06-20T13:29:06.026Z,63.15
2019-06-20T13:30:06.458Z,63.65
2019-06-20T13:31:06.902Z,63.85
2019-06-20T13:32:08.423Z,63.45
2019-06-20T13:33:08.869Z,63.65
2019-06-20T13:34:09.361Z,63.55
2019-06-20T13:35:09.800Z,63.22
2019-06-20T13:36:10.235Z,63.72
2019-06-20T13:37:10.677Z,63.45
2019-06-20T13:38:11.121Z,63.75
2019-06-20T13:39:11.630Z,64.15
2019-06-20T13:40:13.737Z,64.45
2019-06-20T13:41:14.185Z,64.64
2019-06-20T13:42:14.633Z,64.58
2019-06-20T13:43:15.131Z,64.97
2019-06-20T13:44:16.031Z,65.37
2019-06-20T13:45:17.878Z,65.47
2019-06-20T13:46:18.308Z,65.50
2019-06-20T13:47:18.812Z,65.80
2019-06-20T13:48:19.303Z,65.14
2019-06-20T13:49:19.765Z,65.83
2019-06-20T13:50:20.230Z,66.36
2019-06-20T13:51:20.718Z,66.66
2019-06-20T13:52:21.144Z,66.86
2019-06-20T13:53:21.659Z,66.96
2019-06-20T13:54:22.098Z,67.46
2019-06-20T13:55:22.547Z,67.76
2019-06-20T13:56:23.008Z,67.46
2019-06-20T13:57:23.429Z,66.96
2019-06-20T13:58:23.876Z,67.10
2019-06-20T13:59:24.308Z,67.57
2019-06-20T14:00:24.750Z,67.46
2019-06-20T14:01:25.197Z,67.86
2019-06-20T14:02:25.647Z,65.77
2019-06-20T14:03:26.334Z,65.97
2019-06-20T14:04:26.795Z,65.97
2019-06-20T14:05:27.241Z,65.67
2019-06-20T14:06:27.787Z,65.77
2019-06-20T14:07:28.247Z,65.56
2019-06-20T14:08:28.738Z,65.47
2019-06-20T14:09:29.185Z,65.34
2019-06-20T14:10:30.022Z,65.50
2019-06-20T14:11:30.549Z,65.23
2019-06-20T14:12:31.003Z,65.34
2019-06-20T14:13:31.455Z,66.00
2019-06-20T14:14:31.942Z,65.31
2019-06-20T14:15:32.461Z,65.31
2019-06-20T14:16:32.905Z,65.20
2019-06-20T14:17:33.390Z,65.91
2019-06-20T14:18:33.840Z,65.80
2019-06-20T14:19:34.579Z,65.77
2019-06-20T14:20:35.015Z,65.77
2019-06-20T14:21:35.446Z,65.87
2019-06-20T14:22:35.986Z,65.67
2019-06-20T14:23:36.439Z,65.17
2019-06-20T14:24:37.005Z,65.24
2019-06-20T14:25:37.467Z,64.51
2019-06-20T14:26:37.887Z,63.72
2019-06-20T14:27:38.338Z,63.52
2019-06-20T14:28:38.805Z,62.42
2019-06-20T14:29:39.796Z,63.15
2019-06-20T14:30:40.608Z,63.15
2019-06-20T14:31:41.032Z,63.48
2019-06-20T14:32:42.994Z,64.18
2019-06-20T14:33:44.237Z,64.58
2019-06-20T14:34:45.405Z,64.84
2019-06-20T14:35:47.867Z,64.39
2019-06-20T14:36:50.935Z,63.46
2019-06-20T14:37:52.638Z,62.50
2019-06-20T14:38:53.860Z,62.47
2019-06-20T14:39:54.987Z,61.65
2019-06-20T14:40:55.502Z,62.67
2019-06-20T14:41:55.934Z,62.70
2019-06-20T14:42:56.375Z,62.73
2019-06-20T14:43:56.829Z,62.56
2019-06-20T14:44:57.268Z,63.56
2019-06-20T14:45:57.700Z,63.26
2019-06-20T14:46:59.468Z,63.76
2019-06-20T14:47:59.957Z,63.98
2019-06-20T14:49:00.399Z,64.61
2019-06-20T14:50:00.824Z,64.91
2019-06-20T14:51:01.253Z,65.61
2019-06-20T14:52:01.673Z,64.54
2019-06-20T14:53:02.163Z,64.45
2019-06-20T14:54:02.600Z,64.75
2019-06-20T14:55:03.051Z,65.14
2019-06-20T14:56:03.477Z,64.75
2019-06-20T14:57:03.924Z,64.54
2019-06-20T14:58:04.377Z,64.54
2019-06-20T14:59:04.828Z,64.64
2019-06-20T15:00:05.353Z,64.45
2019-06-20T15:01:05.837Z,64.64
2019-06-20T15:02:06.284Z,64.54
2019-06-20T15:03:06.759Z,64.54
2019-06-20T15:04:07.218Z,64.94
2019-06-20T15:05:07.675Z,64.84
2019-06-20T15:06:08.662Z,64.54
2019-06-20T15:07:09.211Z,65.05
2019-06-20T15:08:09.675Z,64.54
2019-06-20T15:09:10.131Z,65.01
2019-06-20T15:10:13.234Z,63.95
2019-06-20T15:11:16.868Z,63.25
2019-06-20T15:12:17.300Z,63.05
2019-06-20T15:13:17.726Z,63.35
2019-06-20T15:14:18.185Z,63.15
2019-06-20T15:15:18.726Z,63.85
2019-06-20T15:16:19.413Z,64.04
2019-06-20T15:17:19.868Z,64.37
2019-06-20T15:18:20.315Z,64.58
2019-06-20T15:19:20.787Z,64.67
2019-06-20T15:20:21.232Z,64.71
2019-06-20T15:21:21.663Z,64.81
2019-06-20T15:22:22.099Z,64.54
2019-06-20T15:23:22.538Z,64.84
2019-06-20T15:24:22.983Z,65.34
2019-06-20T15:25:23.415Z,65.67
2019-06-20T15:26:23.841Z,65.56
2019-06-20T15:27:24.274Z,66.06
2019-06-20T15:28:24.706Z,65.97
2019-06-20T15:29:25.165Z,65.56
2019-06-20T15:30:25.666Z,66.36
2019-06-20T15:31:26.133Z,66.56
2019-06-20T15:32:26.570Z,67.10
2019-06-20T15:33:27.005Z,67.10
2019-06-20T15:34:27.504Z,67.00
2019-06-20T15:35:27.952Z,65.90
2019-06-20T15:36:28.392Z,65.60
2019-06-20T15:37:28.891Z,65.63
2019-06-20T15:38:29.341Z,67.03
2019-06-20T15:39:29.801Z,67.13
2019-06-20T15:40:30.233Z,67.23
2019-06-20T15:41:30.665Z,67.53
2019-06-20T15:42:31.102Z,66.93
2019-06-20T15:43:31.554Z,67.26
2019-06-20T15:44:32.035Z,67.86
2019-06-20T15:45:32.471Z,67.46
2019-06-20T15:46:32.908Z,68.26
2019-06-20T15:47:33.427Z,68.06
2019-06-20T15:48:33.882Z,67.36
2019-06-20T15:49:34.409Z,67.89
2019-06-20T15:50:35.038Z,68.39
2019-06-20T15:51:35.541Z,68.19
2019-06-20T15:52:36.073Z,69.09
2019-06-20T15:53:36.502Z,69.02
2019-06-20T15:54:36.961Z,69.02
2019-06-20T15:55:37.408Z,69.53
2019-06-20T15:56:37.836Z,69.46
2019-06-20T15:57:38.263Z,70.06
2019-06-20T15:58:38.800Z,70.66
2019-06-20T15:59:42.079Z,70.16
2019-06-20T16:00:42.660Z,70.69
2019-06-20T16:01:43.090Z,70.79
2019-06-20T16:02:43.521Z,70.59
2019-06-20T16:03:43.977Z,70.26
2019-06-20T16:04:44.451Z,70.50
2019-06-20T16:05:44.889Z,70.66
2019-06-20T16:06:45.616Z,70.26
2019-06-20T16:07:46.065Z,70.46
2019-06-20T16:08:46.497Z,70.26
2019-06-20T16:09:46.959Z,70.16
2019-06-20T16:10:47.402Z,70.26
2019-06-20T16:11:47.876Z,70.73
2019-06-20T16:12:48.315Z,70.56
2019-06-20T16:13:50.225Z,70.53
2019-06-20T16:14:50.778Z,70.73
2019-06-20T16:15:51.203Z,70.62
2019-06-20T16:16:51.635Z,70.16
2019-06-20T16:17:52.075Z,70.16
2019-06-20T16:18:52.499Z,70.32
2019-06-20T16:19:53.045Z,70.43
2019-06-20T16:20:53.480Z,70.36
2019-06-20T16:21:53.923Z,70.06
2019-06-20T16:22:54.358Z,69.82
2019-06-20T16:23:54.806Z,69.76
2019-06-20T16:24:55.258Z,69.86
2019-06-20T16:25:55.726Z,69.32
2019-06-20T16:26:56.179Z,69.46
2019-06-20T16:27:56.626Z,68.96
2019-06-20T16:28:57.054Z,69.02
2019-06-20T16:29:57.540Z,68.93
2019-06-20T16:31:08.424Z,69.76
2019-06-20T16:32:04.392Z,69.86
2019-06-20T16:33:04.819Z,69.93
2019-06-20T16:34:05.319Z,70.43
2019-06-20T16:35:05.823Z,70.56
2019-06-20T16:36:06.274Z,70.46
2019-06-20T16:37:10.478Z,69.56
2019-06-20T16:38:11.149Z,69.66
2019-06-20T16:39:11.586Z,69.06
2019-06-20T16:40:12.435Z,69.56
2019-06-20T16:41:12.861Z,69.86
2019-06-20T16:42:13.300Z,69.96
2019-06-20T16:43:13.747Z,70.16
2019-06-20T16:44:14.191Z,69.96
2019-06-20T16:45:14.651Z,70.26
2019-06-20T16:46:15.088Z,70.46
2019-06-20T16:47:15.531Z,70.76
2019-06-20T16:48:16.045Z,70.59
2019-06-20T16:49:16.487Z,70.19
2019-06-20T16:50:16.949Z,71.09
2019-06-20T16:51:17.378Z,70.79
2019-06-20T16:52:17.806Z,71.03
2019-06-20T16:53:18.239Z,71.33
2019-06-20T16:54:18.666Z,71.33
2019-06-20T16:55:19.369Z,71.43
2019-06-20T16:56:19.824Z,71.77
2019-06-20T16:57:20.263Z,71.96
2019-06-20T16:58:20.709Z,72.36
2019-06-20T16:59:21.978Z,72.47
2019-06-20T17:00:22.517Z,72.77
2019-06-20T17:01:22.980Z,72.90
2019-06-20T17:02:23.420Z,72.90
2019-06-20T17:03:40.512Z,72.70
2019-06-20T17:04:30.287Z,72.90
2019-06-20T17:05:30.723Z,72.90
2019-06-20T17:06:31.154Z,73.30
2019-06-20T17:07:31.611Z,73.00
2019-06-20T17:08:32.072Z,72.80
2019-06-20T17:09:32.535Z,73.30
2019-06-20T17:10:32.982Z,73.20
2019-06-20T17:11:33.427Z,73.30
2019-06-20T17:12:33.980Z,72.90
2019-06-20T17:13:34.537Z,73.30
2019-06-20T17:14:34.983Z,73.30
2019-06-20T17:15:35.426Z,73.70
2019-06-20T17:16:35.855Z,73.10
2019-06-20T17:17:36.289Z,73.40
2019-06-20T17:18:36.716Z,73.30
2019-06-20T17:19:37.177Z,73.10
2019-06-20T17:20:37.624Z,73.16
2019-06-20T17:21:38.058Z,72.77
2019-06-20T17:22:38.490Z,73.16
2019-06-20T17:23:38.935Z,72.47
2019-06-20T17:24:39.389Z,72.43
2019-06-20T17:25:39.839Z,72.53
2019-06-20T17:26:40.337Z,71.93
2019-06-20T17:27:40.773Z,72.43
2019-06-20T17:28:41.214Z,72.13
2019-06-20T17:29:41.782Z,72.03
2019-06-20T17:30:42.340Z,71.69
2019-06-20T17:31:42.804Z,71.80
2019-06-20T17:32:43.273Z,71.59
2019-06-20T17:33:56.764Z,71.69
2019-06-20T17:34:50.185Z,71.80
2019-06-20T17:35:50.642Z,71.76
2019-06-20T17:36:51.082Z,71.80
2019-06-20T17:37:51.533Z,71.69
2019-06-20T17:38:51.963Z,71.89
2019-06-20T17:39:52.439Z,71.69
2019-06-20T17:40:52.878Z,71.69
2019-06-20T17:41:55.427Z,71.66
2019-06-20T17:42:56.247Z,71.76
2019-06-20T17:43:56.717Z,71.80
2019-06-20T17:44:57.183Z,71.89
2019-06-20T17:45:57.624Z,72.00
2019-06-20T17:46:58.257Z,71.69
2019-06-20T17:47:58.970Z,71.09
2019-06-20T17:48:59.399Z,72.00
2019-06-20T17:49:59.874Z,71.39
2019-06-20T17:51:00.455Z,71.30
2019-06-20T17:52:01.009Z,71.39
2019-06-20T17:53:01.443Z,71.50
2019-06-20T17:54:01.869Z,71.39
2019-06-20T17:55:02.303Z,71.50
2019-06-20T17:56:02.737Z,71.80
2019-06-20T17:57:03.743Z,71.59
2019-06-20T17:58:04.212Z,71.00
2019-06-20T17:59:04.675Z,71.69
2019-06-20T18:00:05.138Z,71.63
2019-06-20T18:01:05.576Z,71.59
2019-06-20T18:02:06.029Z,71.69
2019-06-20T18:03:06.475Z,71.59
2019-06-20T18:04:13.577Z,71.69
2019-06-20T18:05:13.325Z,71.39
2019-06-20T18:06:13.756Z,71.39
2019-06-20T18:07:14.335Z,71.50
2019-06-20T18:08:15.681Z,71.03
2019-06-20T18:09:16.191Z,71.12